FCYSMB GMMZ-GMAD
Flight info
| Callsign | FCYSMB |
|---|---|
| Flight time | 1h 7m |
| Altitude | 11500 |
| Route | 3111N00725W 3127N00725W 3135N00744W DCT GMMX DCT 3100N00809W DCT 3026N00852W |
| Aircraft | BT36/L-BDFGLORY/S |
Departure
| Time | 2026-05-04 18:53 |
|---|---|
| Airport | Ouarzazate International Airport (GMMZ) |
Arrival
| Time | 2026-05-04 20:00 |
|---|---|
| Airport | Al Massira Airport (GMAD) |
| Time | Latitude | Longitude | Altitude | Speed | Heading |
|---|---|---|---|---|---|
| 2026-05-04 18:45 | 30.93557 | -6.90713 | 3693 ft | 0 kts | 341° |
| 2026-05-04 18:49 | 30.93608 | -6.90708 | 3691 ft | 13 kts | 22° |
| 2026-05-04 18:50 | 30.93705 | -6.90631 | 3688 ft | 18 kts | 55° |
| 2026-05-04 18:50 | 30.93699 | -6.90555 | 3688 ft | 13 kts | 111° |
| 2026-05-04 18:50 | 30.93647 | -6.90426 | 3688 ft | 22 kts | 121° |
| 2026-05-04 18:50 | 30.93567 | -6.90248 | 3688 ft | 27 kts | 116° |
| 2026-05-04 18:51 | 30.93485 | -6.90043 | 3691 ft | 29 kts | 115° |
| 2026-05-04 18:51 | 30.93388 | -6.89821 | 3691 ft | 33 kts | 118° |
| 2026-05-04 18:51 | 30.93314 | -6.89657 | 3691 ft | 18 kts | 75° |
| 2026-05-04 18:51 | 30.93379 | -6.89725 | 3691 ft | 15 kts | 297° |
| 2026-05-04 18:52 | 30.93444 | -6.89873 | 3691 ft | 41 kts | 297° |
| 2026-05-04 18:52 | 30.93628 | -6.90380 | 3694 ft | 89 kts | 290° |
| 2026-05-04 18:52 | 30.93879 | -6.91112 | 3847 ft | 109 kts | 298° |
| 2026-05-04 18:52 | 30.94325 | -6.91935 | 3934 ft | 127 kts | 303° |
| 2026-05-04 18:53 | 30.94815 | -6.92837 | 4018 ft | 135 kts | 301° |
| 2026-05-04 18:53 | 30.95239 | -6.93768 | 4316 ft | 127 kts | 293° |
| 2026-05-04 18:53 | 30.95641 | -6.94650 | 4768 ft | 122 kts | 301° |
| 2026-05-04 18:53 | 30.96078 | -6.95462 | 5207 ft | 115 kts | 298° |
| 2026-05-04 18:54 | 30.96474 | -6.96258 | 5589 ft | 113 kts | 300° |
| 2026-05-04 18:54 | 30.96856 | -6.97043 | 5935 ft | 110 kts | 302° |
| 2026-05-04 18:54 | 30.97245 | -6.97842 | 6236 ft | 118 kts | 302° |
| 2026-05-04 18:54 | 30.97671 | -6.98719 | 6437 ft | 128 kts | 300° |
| 2026-05-04 18:55 | 30.98114 | -6.99634 | 6699 ft | 130 kts | 302° |
| 2026-05-04 18:55 | 30.99007 | -7.01478 | 7223 ft | 132 kts | 300° |
| 2026-05-04 18:55 | 30.99461 | -7.02422 | 7489 ft | 135 kts | 300° |
| 2026-05-04 18:56 | 30.99927 | -7.03383 | 7729 ft | 138 kts | 300° |
| 2026-05-04 18:56 | 31.00398 | -7.04357 | 8002 ft | 137 kts | 299° |
| 2026-05-04 18:56 | 31.00868 | -7.05333 | 8268 ft | 141 kts | 299° |
| 2026-05-04 18:56 | 31.01353 | -7.06341 | 8538 ft | 144 kts | 299° |
| 2026-05-04 18:57 | 31.01850 | -7.07368 | 8842 ft | 145 kts | 298° |
| 2026-05-04 18:57 | 31.02344 | -7.08391 | 9160 ft | 145 kts | 297° |
| 2026-05-04 18:57 | 31.02841 | -7.09418 | 9445 ft | 147 kts | 297° |
| 2026-05-04 18:57 | 31.03347 | -7.10469 | 9772 ft | 149 kts | 296° |
| 2026-05-04 18:58 | 31.03858 | -7.11528 | 10070 ft | 151 kts | 297° |
| 2026-05-04 18:58 | 31.04377 | -7.12606 | 10358 ft | 153 kts | 297° |
| 2026-05-04 18:58 | 31.04899 | -7.13690 | 10655 ft | 154 kts | 297° |
| 2026-05-04 18:58 | 31.05426 | -7.14782 | 10955 ft | 155 kts | 297° |
| 2026-05-04 18:59 | 31.05953 | -7.15878 | 11265 ft | 154 kts | 295° |
| 2026-05-04 18:59 | 31.06475 | -7.16958 | 11566 ft | 153 kts | 295° |
| 2026-05-04 18:59 | 31.06991 | -7.18033 | 11892 ft | 151 kts | 295° |
| 2026-05-04 18:59 | 31.07500 | -7.19093 | 12184 ft | 152 kts | 295° |
| 2026-05-04 19:00 | 31.08021 | -7.20172 | 12500 ft | 153 kts | 295° |
| 2026-05-04 19:00 | 31.08541 | -7.21251 | 12838 ft | 153 kts | 295° |
| 2026-05-04 19:00 | 31.09056 | -7.22333 | 13189 ft | 152 kts | 295° |
| 2026-05-04 19:00 | 31.09571 | -7.23399 | 13526 ft | 150 kts | 296° |
| 2026-05-04 19:01 | 31.10083 | -7.24459 | 13888 ft | 150 kts | 295° |
| 2026-05-04 19:01 | 31.10599 | -7.25536 | 14023 ft | 160 kts | 295° |
| 2026-05-04 19:01 | 31.11172 | -7.26731 | 14021 ft | 175 kts | 296° |
| 2026-05-04 19:01 | 31.11780 | -7.27994 | 14017 ft | 181 kts | 296° |
| 2026-05-04 19:02 | 31.12404 | -7.29293 | 14019 ft | 185 kts | 296° |
| 2026-05-04 19:02 | 31.13038 | -7.30614 | 14041 ft | 188 kts | 296° |
| 2026-05-04 19:02 | 31.13681 | -7.31951 | 14039 ft | 190 kts | 296° |
| 2026-05-04 19:02 | 31.14331 | -7.33309 | 14053 ft | 193 kts | 296° |
| 2026-05-04 19:03 | 31.14987 | -7.34680 | 14038 ft | 194 kts | 296° |
| 2026-05-04 19:03 | 31.15642 | -7.36050 | 14043 ft | 193 kts | 296° |
| 2026-05-04 19:03 | 31.16301 | -7.37417 | 14042 ft | 193 kts | 296° |
| 2026-05-04 19:03 | 31.16955 | -7.38791 | 14045 ft | 195 kts | 296° |
| 2026-05-04 19:04 | 31.17651 | -7.40157 | 14035 ft | 198 kts | 304° |
| 2026-05-04 19:04 | 31.18721 | -7.41194 | 14045 ft | 205 kts | 326° |
| 2026-05-04 19:04 | 31.20113 | -7.41670 | 14056 ft | 215 kts | 349° |
| 2026-05-04 19:04 | 31.21617 | -7.41679 | 14063 ft | 217 kts | 354° |
| 2026-05-04 19:05 | 31.23129 | -7.41668 | 14061 ft | 218 kts | 354° |
| 2026-05-04 19:05 | 31.24641 | -7.41666 | 14062 ft | 217 kts | 354° |
| 2026-05-04 19:05 | 31.25640 | -7.41667 | 14062 ft | 217 kts | 353° |
| 2026-05-04 19:05 | 31.27144 | -7.41667 | 14051 ft | 214 kts | 354° |
| 2026-05-04 19:06 | 31.28622 | -7.41668 | 14060 ft | 212 kts | 353° |
| 2026-05-04 19:06 | 31.30096 | -7.41669 | 14054 ft | 211 kts | 354° |
| 2026-05-04 19:06 | 31.31567 | -7.41668 | 14065 ft | 211 kts | 354° |
| 2026-05-04 19:06 | 31.33033 | -7.41669 | 14074 ft | 211 kts | 354° |
| 2026-05-04 19:07 | 31.34515 | -7.41667 | 14079 ft | 214 kts | 355° |
| 2026-05-04 19:07 | 31.36012 | -7.41667 | 14078 ft | 216 kts | 355° |
| 2026-05-04 19:07 | 31.37503 | -7.41673 | 14063 ft | 210 kts | 355° |
| 2026-05-04 19:07 | 31.38953 | -7.41670 | 14074 ft | 209 kts | 355° |
| 2026-05-04 19:08 | 31.40408 | -7.41666 | 14072 ft | 211 kts | 355° |
| 2026-05-04 19:08 | 31.41882 | -7.41679 | 14030 ft | 210 kts | 354° |
| 2026-05-04 19:08 | 31.43339 | -7.41760 | 14047 ft | 207 kts | 343° |
| 2026-05-04 19:08 | 31.44620 | -7.42376 | 14068 ft | 195 kts | 323° |
| 2026-05-04 19:09 | 31.45629 | -7.43412 | 14072 ft | 193 kts | 305° |
| 2026-05-04 19:09 | 31.46304 | -7.44756 | 14054 ft | 194 kts | 293° |
| 2026-05-04 19:09 | 31.46896 | -7.46179 | 14065 ft | 195 kts | 294° |
| 2026-05-04 19:09 | 31.47509 | -7.47598 | 14073 ft | 196 kts | 294° |
| 2026-05-04 19:10 | 31.48115 | -7.49034 | 14079 ft | 197 kts | 294° |
| 2026-05-04 19:10 | 31.48724 | -7.50480 | 14077 ft | 198 kts | 294° |
| 2026-05-04 19:10 | 31.49335 | -7.51931 | 14080 ft | 199 kts | 294° |
| 2026-05-04 19:10 | 31.49949 | -7.53388 | 14085 ft | 199 kts | 294° |
| 2026-05-04 19:11 | 31.50563 | -7.54847 | 14075 ft | 200 kts | 294° |
| 2026-05-04 19:11 | 31.51178 | -7.56304 | 14077 ft | 200 kts | 294° |
| 2026-05-04 19:11 | 31.51764 | -7.57756 | 14017 ft | 202 kts | 290° |
| 2026-05-04 19:11 | 31.52193 | -7.59378 | 13675 ft | 213 kts | 286° |
| 2026-05-04 19:12 | 31.52702 | -7.61046 | 13297 ft | 222 kts | 289° |
| 2026-05-04 19:12 | 31.54180 | -7.64258 | 12680 ft | 227 kts | 303° |
| 2026-05-04 19:12 | 31.55163 | -7.65726 | 12327 ft | 230 kts | 306° |
| 2026-05-04 19:13 | 31.56198 | -7.67159 | 11998 ft | 232 kts | 309° |
| 2026-05-04 19:13 | 31.57273 | -7.68579 | 11654 ft | 233 kts | 308° |
| 2026-05-04 19:13 | 31.58380 | -7.69980 | 11112 ft | 238 kts | 311° |
| 2026-05-04 19:13 | 31.59604 | -7.71404 | 9971 ft | 256 kts | 311° |
| 2026-05-04 19:14 | 31.60578 | -7.73196 | 8973 ft | 253 kts | 289° |
| 2026-05-04 19:14 | 31.60913 | -7.75120 | 8235 ft | 242 kts | 270° |
| 2026-05-04 19:14 | 31.60726 | -7.77066 | 7385 ft | 239 kts | 258° |
| 2026-05-04 19:14 | 31.60232 | -7.78906 | 6789 ft | 232 kts | 250° |
| 2026-05-04 19:15 | 31.59700 | -7.80664 | 6090 ft | 230 kts | 253° |
| 2026-05-04 19:15 | 31.59272 | -7.82479 | 5376 ft | 229 kts | 258° |
| 2026-05-04 19:15 | 31.59006 | -7.84289 | 4790 ft | 222 kts | 266° |
| 2026-05-04 19:15 | 31.58965 | -7.86055 | 4340 ft | 212 kts | 276° |
| 2026-05-04 19:16 | 31.59180 | -7.87729 | 3892 ft | 202 kts | 285° |
| 2026-05-04 19:16 | 31.59500 | -7.89313 | 3492 ft | 196 kts | 288° |
| 2026-05-04 19:16 | 31.59831 | -7.90802 | 3300 ft | 182 kts | 287° |
| 2026-05-04 19:16 | 31.60109 | -7.92243 | 2908 ft | 180 kts | 286° |
| 2026-05-04 19:17 | 31.60152 | -7.93625 | 2886 ft | 163 kts | 266° |
| 2026-05-04 19:17 | 31.60135 | -7.94889 | 2881 ft | 147 kts | 278° |
| 2026-05-04 19:17 | 31.60207 | -7.96046 | 2800 ft | 143 kts | 276° |
| 2026-05-04 19:17 | 31.60215 | -7.97293 | 2438 ft | 160 kts | 272° |
| 2026-05-04 19:18 | 31.60175 | -7.98594 | 2272 ft | 158 kts | 275° |
| 2026-05-04 19:18 | 31.60286 | -7.99799 | 2093 ft | 139 kts | 280° |
| 2026-05-04 19:18 | 31.60416 | -8.00881 | 1873 ft | 128 kts | 280° |
| 2026-05-04 19:18 | 31.60523 | -8.01882 | 1658 ft | 124 kts | 280° |
| 2026-05-04 19:19 | 31.60620 | -8.02848 | 1575 ft | 106 kts | 281° |
| 2026-05-04 19:19 | 31.60694 | -8.03676 | 1618 ft | 101 kts | 281° |
| 2026-05-04 19:19 | 31.60853 | -8.04428 | 1700 ft | 90 kts | 291° |
| 2026-05-04 19:19 | 31.60771 | -8.05141 | 1745 ft | 93 kts | 247° |
| 2026-05-04 19:20 | 31.60298 | -8.05664 | 1764 ft | 100 kts | 206° |
| 2026-05-04 19:20 | 31.59637 | -8.05879 | 1837 ft | 94 kts | 183° |
| 2026-05-04 19:20 | 31.58970 | -8.05936 | 1843 ft | 96 kts | 182° |
| 2026-05-04 19:20 | 31.58310 | -8.05859 | 1943 ft | 95 kts | 171° |
| 2026-05-04 19:21 | 31.57626 | -8.05777 | 2046 ft | 101 kts | 181° |
| 2026-05-04 19:21 | 31.56915 | -8.05737 | 2146 ft | 104 kts | 174° |
| 2026-05-04 19:21 | 31.56186 | -8.05612 | 2232 ft | 111 kts | 173° |
| 2026-05-04 19:21 | 31.55363 | -8.05437 | 2234 ft | 128 kts | 157° |
| 2026-05-04 19:22 | 31.54452 | -8.05225 | 2248 ft | 138 kts | 184° |
| 2026-05-04 19:22 | 31.53502 | -8.05244 | 2585 ft | 136 kts | 178° |
| 2026-05-04 19:22 | 31.52559 | -8.05246 | 2910 ft | 139 kts | 185° |
| 2026-05-04 19:22 | 31.51543 | -8.05362 | 3125 ft | 151 kts | 185° |
| 2026-05-04 19:23 | 31.50459 | -8.05482 | 3195 ft | 169 kts | 199° |
| 2026-05-04 19:23 | 31.49335 | -8.06088 | 3089 ft | 188 kts | 201° |
| 2026-05-04 19:23 | 31.48029 | -8.06451 | 3026 ft | 196 kts | 188° |
| 2026-05-04 19:23 | 31.46678 | -8.06651 | 3050 ft | 196 kts | 187° |
| 2026-05-04 19:24 | 31.45327 | -8.06877 | 3065 ft | 195 kts | 188° |
| 2026-05-04 19:24 | 31.43993 | -8.07135 | 3140 ft | 193 kts | 190° |
| 2026-05-04 19:24 | 31.42715 | -8.07430 | 3429 ft | 178 kts | 194° |
| 2026-05-04 19:24 | 31.41562 | -8.07706 | 3865 ft | 166 kts | 189° |
| 2026-05-04 19:25 | 31.40432 | -8.07952 | 4146 ft | 165 kts | 191° |
| 2026-05-04 19:25 | 31.39302 | -8.08205 | 4412 ft | 169 kts | 188° |
| 2026-05-04 19:25 | 31.38128 | -8.08322 | 4701 ft | 169 kts | 182° |
| 2026-05-04 19:25 | 31.36959 | -8.08420 | 5023 ft | 168 kts | 185° |
| 2026-05-04 19:26 | 31.35797 | -8.08594 | 5322 ft | 167 kts | 188° |
| 2026-05-04 19:26 | 31.34648 | -8.08799 | 5607 ft | 167 kts | 188° |
| 2026-05-04 19:26 | 31.33500 | -8.09006 | 5890 ft | 168 kts | 188° |
| 2026-05-04 19:26 | 31.32344 | -8.09214 | 6208 ft | 168 kts | 188° |
| 2026-05-04 19:27 | 31.31192 | -8.09423 | 6520 ft | 167 kts | 188° |
| 2026-05-04 19:27 | 31.30042 | -8.09628 | 6804 ft | 167 kts | 188° |
| 2026-05-04 19:27 | 31.28895 | -8.09834 | 7100 ft | 166 kts | 188° |
| 2026-05-04 19:27 | 31.27752 | -8.10039 | 7398 ft | 166 kts | 189° |
| 2026-05-04 19:28 | 31.26628 | -8.10240 | 7787 ft | 166 kts | 189° |
| 2026-05-04 19:28 | 31.25478 | -8.10447 | 8055 ft | 169 kts | 191° |
| 2026-05-04 19:28 | 31.24312 | -8.10656 | 8321 ft | 170 kts | 192° |
| 2026-05-04 19:28 | 31.23143 | -8.10865 | 8621 ft | 170 kts | 192° |
| 2026-05-04 19:29 | 31.21964 | -8.11077 | 8941 ft | 172 kts | 190° |
| 2026-05-04 19:29 | 31.20782 | -8.11286 | 9259 ft | 172 kts | 192° |
| 2026-05-04 19:29 | 31.19593 | -8.11500 | 9595 ft | 173 kts | 191° |
| 2026-05-04 19:29 | 31.18400 | -8.11714 | 9954 ft | 174 kts | 191° |
| 2026-05-04 19:30 | 31.17205 | -8.11929 | 10229 ft | 173 kts | 191° |
| 2026-05-04 19:30 | 31.16013 | -8.12143 | 10482 ft | 173 kts | 191° |
| 2026-05-04 19:30 | 31.14825 | -8.12349 | 10737 ft | 172 kts | 194° |
| 2026-05-04 19:30 | 31.13643 | -8.12560 | 11017 ft | 171 kts | 194° |
| 2026-05-04 19:31 | 31.12465 | -8.12773 | 11195 ft | 171 kts | 193° |
| 2026-05-04 19:31 | 31.11295 | -8.12983 | 11455 ft | 170 kts | 193° |
| 2026-05-04 19:31 | 31.10125 | -8.13192 | 11795 ft | 170 kts | 193° |
| 2026-05-04 19:31 | 31.08958 | -8.13402 | 12132 ft | 170 kts | 195° |
| 2026-05-04 19:32 | 31.07792 | -8.13612 | 12437 ft | 170 kts | 194° |
| 2026-05-04 19:32 | 31.06629 | -8.13813 | 12739 ft | 168 kts | 196° |
| 2026-05-04 19:32 | 31.05474 | -8.14028 | 13059 ft | 168 kts | 195° |
| 2026-05-04 19:32 | 31.04304 | -8.14235 | 13250 ft | 175 kts | 195° |
| 2026-05-04 19:33 | 31.03050 | -8.14453 | 13257 ft | 189 kts | 195° |
| 2026-05-04 19:33 | 31.01734 | -8.14697 | 13262 ft | 194 kts | 195° |
| 2026-05-04 19:33 | 31.00397 | -8.15041 | 13259 ft | 197 kts | 209° |
| 2026-05-04 19:33 | 30.99273 | -8.15927 | 13257 ft | 195 kts | 229° |
| 2026-05-04 19:34 | 30.98360 | -8.17098 | 13245 ft | 196 kts | 232° |
| 2026-05-04 19:34 | 30.97437 | -8.18271 | 13239 ft | 196 kts | 231° |
| 2026-05-04 19:34 | 30.96512 | -8.19424 | 13252 ft | 195 kts | 232° |
| 2026-05-04 19:34 | 30.95600 | -8.20611 | 13244 ft | 198 kts | 232° |
| 2026-05-04 19:35 | 30.94673 | -8.21802 | 13243 ft | 200 kts | 232° |
| 2026-05-04 19:35 | 30.93730 | -8.22997 | 13240 ft | 201 kts | 232° |
| 2026-05-04 19:35 | 30.92784 | -8.24198 | 13245 ft | 202 kts | 232° |
| 2026-05-04 19:35 | 30.91837 | -8.25403 | 13230 ft | 201 kts | 232° |
| 2026-05-04 19:36 | 30.90889 | -8.26614 | 13230 ft | 203 kts | 232° |
| 2026-05-04 19:36 | 30.89935 | -8.27828 | 13225 ft | 204 kts | 231° |
| 2026-05-04 19:36 | 30.88978 | -8.29041 | 13222 ft | 203 kts | 232° |
| 2026-05-04 19:36 | 30.88030 | -8.30244 | 13225 ft | 201 kts | 232° |
| 2026-05-04 19:37 | 30.87092 | -8.31438 | 13216 ft | 197 kts | 232° |
| 2026-05-04 19:37 | 30.86170 | -8.32612 | 13234 ft | 198 kts | 232° |
| 2026-05-04 19:37 | 30.85235 | -8.33802 | 13226 ft | 200 kts | 232° |
| 2026-05-04 19:37 | 30.84301 | -8.34990 | 13222 ft | 198 kts | 232° |
| 2026-05-04 19:38 | 30.83388 | -8.36143 | 13227 ft | 196 kts | 232° |
| 2026-05-04 19:38 | 30.82464 | -8.37319 | 13219 ft | 198 kts | 232° |
| 2026-05-04 19:38 | 30.81541 | -8.38489 | 13225 ft | 196 kts | 232° |
| 2026-05-04 19:38 | 30.80614 | -8.39666 | 13224 ft | 197 kts | 232° |
| 2026-05-04 19:39 | 30.79685 | -8.40843 | 13203 ft | 197 kts | 232° |
| 2026-05-04 19:39 | 30.78755 | -8.42023 | 13203 ft | 198 kts | 232° |
| 2026-05-04 19:39 | 30.77821 | -8.43207 | 13204 ft | 199 kts | 232° |
| 2026-05-04 19:39 | 30.76884 | -8.44396 | 13200 ft | 199 kts | 232° |
| 2026-05-04 19:40 | 30.75950 | -8.45577 | 13203 ft | 198 kts | 232° |
| 2026-05-04 19:40 | 30.75019 | -8.46755 | 13203 ft | 198 kts | 232° |
| 2026-05-04 19:40 | 30.74089 | -8.47933 | 13202 ft | 198 kts | 232° |
| 2026-05-04 19:40 | 30.73152 | -8.49119 | 13086 ft | 201 kts | 232° |
| 2026-05-04 19:41 | 30.72208 | -8.50317 | 12904 ft | 200 kts | 232° |
| 2026-05-04 19:41 | 30.71280 | -8.51489 | 12725 ft | 195 kts | 231° |
| 2026-05-04 19:41 | 30.70370 | -8.52637 | 12547 ft | 192 kts | 231° |
| 2026-05-04 19:41 | 30.69471 | -8.53773 | 12369 ft | 190 kts | 231° |
| 2026-05-04 19:42 | 30.68577 | -8.54903 | 12195 ft | 189 kts | 231° |
| 2026-05-04 19:42 | 30.67687 | -8.56027 | 12003 ft | 189 kts | 232° |
| 2026-05-04 19:42 | 30.66800 | -8.57147 | 11823 ft | 188 kts | 232° |
| 2026-05-04 19:42 | 30.65912 | -8.58270 | 11654 ft | 189 kts | 232° |
| 2026-05-04 19:43 | 30.65023 | -8.59390 | 11484 ft | 189 kts | 232° |
| 2026-05-04 19:43 | 30.64132 | -8.60515 | 11313 ft | 190 kts | 232° |
| 2026-05-04 19:43 | 30.63239 | -8.61642 | 11145 ft | 189 kts | 232° |
| 2026-05-04 19:43 | 30.62347 | -8.62765 | 10974 ft | 189 kts | 232° |
| 2026-05-04 19:44 | 30.61459 | -8.63885 | 10811 ft | 189 kts | 232° |
| 2026-05-04 19:44 | 30.60570 | -8.65006 | 10641 ft | 189 kts | 232° |
| 2026-05-04 19:44 | 30.59681 | -8.66125 | 10470 ft | 189 kts | 232° |
| 2026-05-04 19:44 | 30.58790 | -8.67248 | 10310 ft | 189 kts | 232° |
| 2026-05-04 19:45 | 30.57897 | -8.68374 | 10150 ft | 190 kts | 232° |
| 2026-05-04 19:45 | 30.57008 | -8.69490 | 10083 ft | 185 kts | 232° |
| 2026-05-04 19:45 | 30.56150 | -8.70568 | 10079 ft | 179 kts | 233° |
| 2026-05-04 19:45 | 30.55317 | -8.71616 | 10073 ft | 175 kts | 232° |
| 2026-05-04 19:46 | 30.54500 | -8.72643 | 10069 ft | 171 kts | 234° |
| 2026-05-04 19:46 | 30.53699 | -8.73653 | 10068 ft | 169 kts | 234° |
| 2026-05-04 19:46 | 30.52906 | -8.74651 | 10066 ft | 168 kts | 234° |
| 2026-05-04 19:46 | 30.52120 | -8.75638 | 10067 ft | 166 kts | 234° |
| 2026-05-04 19:47 | 30.51338 | -8.76621 | 10065 ft | 165 kts | 234° |
| 2026-05-04 19:47 | 30.50560 | -8.77598 | 10066 ft | 165 kts | 234° |
| 2026-05-04 19:47 | 30.49794 | -8.78561 | 10066 ft | 165 kts | 234° |
| 2026-05-04 19:47 | 30.49018 | -8.79535 | 10059 ft | 164 kts | 234° |
| 2026-05-04 19:48 | 30.48244 | -8.80506 | 10060 ft | 164 kts | 234° |
| 2026-05-04 19:48 | 30.47473 | -8.81474 | 10059 ft | 163 kts | 234° |
| 2026-05-04 19:48 | 30.46702 | -8.82441 | 10060 ft | 163 kts | 234° |
| 2026-05-04 19:48 | 30.45930 | -8.83410 | 10060 ft | 164 kts | 234° |
| 2026-05-04 19:49 | 30.45155 | -8.84380 | 10064 ft | 164 kts | 234° |
| 2026-05-04 19:49 | 30.44381 | -8.85352 | 10064 ft | 164 kts | 234° |
| 2026-05-04 19:49 | 30.43614 | -8.86327 | 10058 ft | 163 kts | 238° |
| 2026-05-04 19:49 | 30.43164 | -8.87477 | 10059 ft | 155 kts | 262° |
| 2026-05-04 19:50 | 30.42928 | -8.88694 | 10063 ft | 155 kts | 261° |
| 2026-05-04 19:50 | 30.42680 | -8.89909 | 10063 ft | 155 kts | 261° |
| 2026-05-04 19:50 | 30.42434 | -8.91125 | 10063 ft | 155 kts | 261° |
| 2026-05-04 19:50 | 30.42189 | -8.92343 | 10064 ft | 155 kts | 261° |
| 2026-05-04 19:51 | 30.41942 | -8.93568 | 10002 ft | 159 kts | 261° |
| 2026-05-04 19:51 | 30.41685 | -8.94850 | 9837 ft | 167 kts | 261° |
| 2026-05-04 19:51 | 30.41417 | -8.96179 | 9622 ft | 173 kts | 261° |
| 2026-05-04 19:51 | 30.41139 | -8.97555 | 9367 ft | 177 kts | 261° |
| 2026-05-04 19:52 | 30.40854 | -8.98957 | 9119 ft | 180 kts | 261° |
| 2026-05-04 19:52 | 30.40566 | -9.00379 | 8871 ft | 182 kts | 260° |
| 2026-05-04 19:52 | 30.40276 | -9.01813 | 8622 ft | 184 kts | 260° |
| 2026-05-04 19:52 | 30.39983 | -9.03254 | 8377 ft | 184 kts | 260° |
| 2026-05-04 19:53 | 30.39692 | -9.04694 | 8133 ft | 183 kts | 260° |
| 2026-05-04 19:53 | 30.39401 | -9.06131 | 7890 ft | 183 kts | 261° |
| 2026-05-04 19:53 | 30.39115 | -9.07542 | 7646 ft | 176 kts | 261° |
| 2026-05-04 19:53 | 30.38842 | -9.08887 | 7405 ft | 172 kts | 260° |
| 2026-05-04 19:54 | 30.38661 | -9.09789 | 7225 ft | 169 kts | 262° |
| 2026-05-04 19:54 | 30.38306 | -9.11518 | 6909 ft | 165 kts | 262° |
| 2026-05-04 19:54 | 30.38051 | -9.12810 | 6668 ft | 166 kts | 259° |
| 2026-05-04 19:54 | 30.37781 | -9.14112 | 6433 ft | 167 kts | 259° |
| 2026-05-04 19:55 | 30.37512 | -9.15424 | 6187 ft | 168 kts | 259° |
| 2026-05-04 19:55 | 30.37333 | -9.16292 | 6023 ft | 167 kts | 261° |
| 2026-05-04 19:55 | 30.37070 | -9.17597 | 5775 ft | 166 kts | 259° |
| 2026-05-04 19:55 | 30.36798 | -9.18896 | 5531 ft | 165 kts | 262° |
| 2026-05-04 19:56 | 30.36536 | -9.20179 | 5284 ft | 163 kts | 262° |
| 2026-05-04 19:56 | 30.36281 | -9.21457 | 5047 ft | 163 kts | 261° |
| 2026-05-04 19:56 | 30.36022 | -9.22737 | 4792 ft | 164 kts | 259° |
| 2026-05-04 19:56 | 30.35445 | -9.23992 | 3989 ft | 191 kts | 240° |
| 2026-05-04 19:57 | 30.34623 | -9.25217 | 3335 ft | 195 kts | 238° |
| 2026-05-04 19:57 | 30.33821 | -9.26474 | 2713 ft | 189 kts | 244° |
| 2026-05-04 19:57 | 30.33236 | -9.27810 | 2103 ft | 181 kts | 248° |
| 2026-05-04 19:57 | 30.32869 | -9.29121 | 1740 ft | 166 kts | 254° |
| 2026-05-04 19:58 | 30.32624 | -9.30404 | 1410 ft | 159 kts | 258° |
| 2026-05-04 19:58 | 30.32467 | -9.31634 | 1186 ft | 144 kts | 260° |
| 2026-05-04 19:58 | 30.32396 | -9.32695 | 1116 ft | 125 kts | 261° |
| 2026-05-04 19:58 | 30.32341 | -9.33676 | 1008 ft | 120 kts | 261° |
| 2026-05-04 19:59 | 30.32322 | -9.34636 | 927 ft | 120 kts | 263° |
| 2026-05-04 19:59 | 30.32306 | -9.35611 | 830 ft | 123 kts | 263° |
| 2026-05-04 19:59 | 30.32282 | -9.36636 | 674 ft | 128 kts | 264° |
| 2026-05-04 19:59 | 30.32236 | -9.37658 | 531 ft | 126 kts | 263° |
| 2026-05-04 20:00 | 30.32223 | -9.38676 | 364 ft | 126 kts | 262° |
| 2026-05-04 20:00 | 30.32239 | -9.39664 | 239 ft | 116 kts | 266° |
| 2026-05-04 20:00 | 30.32246 | -9.40449 | 229 ft | 70 kts | 260° |
| 2026-05-04 20:00 | 30.32224 | -9.40558 | 224 ft | 0 kts | 228° |
| 2026-05-04 20:02 | 30.32544 | -9.40884 | 225 ft | 0 kts | 229° |
| 2026-05-04 20:02 | 30.32710 | -9.41054 | 225 ft | 0 kts | 229° |
| 2026-05-04 20:03 | 30.32711 | -9.41067 | 225 ft | 3 kts | 295° |
| 2026-05-04 20:03 | 30.32726 | -9.41088 | 225 ft | 5 kts | 317° |
| 2026-05-04 20:03 | 30.32793 | -9.41261 | 226 ft | 41 kts | 287° |
| 2026-05-04 20:04 | 30.32836 | -9.41498 | 225 ft | 0 kts | 19° |
| 2026-05-04 20:04 | 30.32844 | -9.41481 | 225 ft | 7 kts | 75° |
| 2026-05-04 20:04 | 30.32853 | -9.41368 | 225 ft | 20 kts | 95° |
| 2026-05-04 20:04 | 30.32858 | -9.41219 | 225 ft | 21 kts | 102° |
| 2026-05-04 20:05 | 30.32832 | -9.41063 | 225 ft | 19 kts | 113° |
| 2026-05-04 20:05 | 30.32756 | -9.40916 | 225 ft | 17 kts | 111° |
| 2026-05-04 20:05 | 30.32786 | -9.40905 | 225 ft | 11 kts | 356° |
| 2026-05-04 20:05 | 30.32871 | -9.40903 | 225 ft | 0 kts | 18° |
| 2026-05-04 20:12 | 30.32870 | -9.40903 | 198 ft | 0 kts | 19° |
| 2026-05-04 20:32 | 30.32869 | -9.40903 | 225 ft | 0 kts | 19° |
| 2026-05-04 20:44 | 30.32869 | -9.40904 | 225 ft | 0 kts | 19° |